EIDW

Dublin Airport

Dublin, Ireland
METAR EIDW 181700Z 23012G23KT 190V270 9999 FEW018 19/10 Q0999 NOSIG
Observed Flight Rules
Sep-18 @ 17:00 UTC (33 minutes ago) Visual Flight Rules
Wind Visibility Clouds
230° at 12 knots
 Gusting to 23 knots
10,000+ meters
  • Few at 1,800' AGL
Temperatures Readings
Current 19°C / 66°F
Dewpoint 10°C / 50°F
Humidity 56%
Altimeter 29.5" Hg
Pressure 999 hPa
Elevation 85
METAR EIDW 181700Z 23012G23KT 190V270 9999 FEW018 19/10 Q0999 NOSIG
Observed Flight Rules
Sep-18 @ 17:00 UTC
(33 minutes ago)
VFR
Wind Visibility
230° at 12 knots
 Gusting to 23 knots
10,000+ meters
Clouds
  • Few at 1,800' AGL
Temperature Dewpoint
19°C / 66°F 10°C / 50°F
Humidity Altimeter Pressure
56% 29.5" Hg 999 hPa